PWSweather.com
Personal Weather Stations
Station Observations
719732
Ponferrada, PonferradaES 24411

PonferradaPonferradaES 24411

Lat: 42.5728, Lon: -6.6425

Elevation: 1676

Station Type: PCE-FWS 20 con garita Ambient Weather SRS100LX

www.meteo.spyfly.es

High Low Average
Temperature 51.8°F11.0°C 34.9°F1.6°C 43.9°F6.6°C
Dew Point 45.2°F7.3°C 34.0°F1.1°C 40.6°F4.8°C
Winds 9.2 mph 14.8 kmh Calm Calm 2.0 mph SSE3.2 kmh SSE
Wind Gusts 18.3 mph29.5 kmh -- 4.0 mph6.4 kmh
Humidity 99% 67% 89%
Pressure 30.01 in1016.3 mb 29.85 in1010.8 mb -
Precipitation 0.53 in13.5 mm - -
Hour Temp Dew Point Humidity Winds Wind Gusts Pressure Precip Precip Rate Daily Precip Total
12:00 AM 42.4°F5.8°C 39.7°F4.3°C 90% 9.2 mph W14.8 kmh W 18.3 mph29.5 kmh 29.87 in1011.5 mb 0.00 in0.0 mm 0.00 in0.0 mm 0.53 in13.5 mm
12:05 AM 42.4°F5.8°C 39.7°F4.3°C 90% 9.2 mph WNW14.8 kmh WNW 18.3 mph29.5 kmh 29.88 in1011.9 mb 0.00 in0.0 mm 0.00 in0.0 mm 0.53 in13.5 mm
12:10 AM 42.4°F5.8°C 39.4°F4.1°C 89% 6.0 mph NW9.7 kmh NW 13.0 mph20.9 kmh 29.87 in1011.5 mb 0.00 in0.0 mm 0.00 in0.0 mm 0.53 in13.5 mm
12:15 AM 42.3°F5.7°C 39.3°F4.1°C 89% 4.5 mph WNW7.2 kmh WNW 10.7 mph17.2 kmh 29.87 in1011.5 mb 0.00 in0.0 mm 0.00 in0.0 mm 0.53 in13.5 mm
12:20 AM 42.1°F5.6°C 39.1°F3.9°C 89% 3.8 mph WNW6.1 kmh WNW 10.7 mph17.2 kmh 29.88 in1011.9 mb 0.00 in0.0 mm 0.00 in0.0 mm 0.53 in13.5 mm
12:25 AM 41.9°F5.5°C 38.9°F3.8°C 89% 3.8 mph W6.1 kmh W 9.2 mph14.8 kmh 29.88 in1011.9 mb 0.00 in0.0 mm 0.00 in0.0 mm 0.53 in13.5 mm
12:30 AM 41.7°F5.4°C 38.7°F3.7°C 89% 4.5 mph W7.2 kmh W 6.9 mph11.1 kmh 29.88 in1011.9 mb 0.00 in0.0 mm 0.00 in0.0 mm 0.53 in13.5 mm
12:35 AM 41.4°F5.2°C 38.7°F3.7°C 90% 3.8 mph WNW6.1 kmh WNW 7.6 mph12.2 kmh 29.88 in1011.9 mb 0.00 in0.0 mm 0.00 in0.0 mm 0.53 in13.5 mm
12:40 AM 41.4°F5.2°C 38.7°F3.7°C 90% 4.5 mph W7.2 kmh W 9.8 mph15.8 kmh 29.88 in1011.9 mb 0.00 in0.0 mm 0.00 in0.0 mm 0.53 in13.5 mm
12:45 AM 41.7°F5.4°C 39.0°F3.9°C 90% 4.5 mph WSW7.2 kmh WSW 12.1 mph19.5 kmh 29.88 in1011.9 mb 0.00 in0.0 mm 0.00 in0.0 mm 0.53 in13.5 mm
12:50 AM 41.9°F5.5°C 39.2°F4.0°C 90% 3.8 mph WSW6.1 kmh WSW 12.1 mph19.5 kmh 29.88 in1011.9 mb 0.00 in0.0 mm 0.00 in0.0 mm 0.53 in13.5 mm
12:55 AM 41.9°F5.5°C 38.9°F3.8°C 89% 3.1 mph WSW5.0 kmh WSW 9.2 mph14.8 kmh 29.88 in1011.9 mb 0.00 in0.0 mm 0.00 in0.0 mm 0.53 in13.5 mm
01:00 AM 41.9°F5.5°C 38.9°F3.8°C 89% 2.2 mph WSW3.5 kmh WSW 9.2 mph14.8 kmh 29.88 in1011.9 mb 0.00 in0.0 mm 0.00 in0.0 mm 0.00 in0.0 mm
01:05 AM 41.9°F5.5°C 38.9°F3.8°C 89% 3.1 mph WSW5.0 kmh WSW 7.6 mph12.2 kmh 29.88 in1011.9 mb 0.00 in0.0 mm 0.00 in0.0 mm 0.00 in0.0 mm
01:10 AM 41.9°F5.5°C 38.9°F3.8°C 89% 3.8 mph WSW6.1 kmh WSW 6.0 mph9.7 kmh 29.89 in1012.2 mb 0.00 in0.0 mm 0.00 in0.0 mm 0.00 in0.0 mm
01:15 AM 41.9°F5.5°C 38.9°F3.8°C 89% 1.6 mph W2.6 kmh W 6.9 mph11.1 kmh 29.89 in1012.2 mb 0.00 in0.0 mm 0.00 in0.0 mm 0.00 in0.0 mm
01:20 AM 41.9°F5.5°C 38.9°F3.8°C 89% 2.2 mph W3.5 kmh W 6.9 mph11.1 kmh 29.89 in1012.2 mb 0.00 in0.0 mm 0.00 in0.0 mm 0.00 in0.0 mm
01:25 AM 41.9°F5.5°C 39.2°F4.0°C 90% 5.4 mph WNW8.7 kmh WNW 10.7 mph17.2 kmh 29.89 in1012.2 mb 0.00 in0.0 mm 0.00 in0.0 mm 0.00 in0.0 mm
01:30 AM 41.9°F5.5°C 39.2°F4.0°C 90% 6.9 mph WNW11.1 kmh WNW 10.7 mph17.2 kmh 29.90 in1012.5 mb 0.00 in0.0 mm 0.00 in0.0 mm 0.00 in0.0 mm
01:35 AM 41.9°F5.5°C 39.2°F4.0°C 90% 4.5 mph WNW7.2 kmh WNW 9.8 mph15.8 kmh 29.89 in1012.2 mb 0.00 in0.0 mm 0.00 in0.0 mm 0.00 in0.0 mm
01:40 AM 41.7°F5.4°C 39.0°F3.9°C 90% 2.2 mph WNW3.5 kmh WNW 9.2 mph14.8 kmh 29.89 in1012.2 mb 0.00 in0.0 mm 0.00 in0.0 mm 0.00 in0.0 mm
01:45 AM 41.7°F5.4°C 39.0°F3.9°C 90% 3.8 mph WNW6.1 kmh WNW 9.8 mph15.8 kmh 29.89 in1012.2 mb 0.00 in0.0 mm 0.00 in0.0 mm 0.00 in0.0 mm
01:50 AM 41.5°F5.3°C 38.5°F3.6°C 89% 0.7 mph WNW1.1 kmh WNW 9.8 mph15.8 kmh 29.89 in1012.2 mb 0.00 in0.0 mm 0.00 in0.0 mm 0.00 in0.0 mm
01:55 AM 41.2°F5.1°C 38.2°F3.4°C 89% 1.6 mph W2.6 kmh W 6.0 mph9.7 kmh 29.89 in1012.2 mb 0.00 in0.0 mm 0.00 in0.0 mm 0.00 in0.0 mm
02:00 AM 41.0°F5.0°C 38.0°F3.3°C 89% 1.6 mph WNW2.6 kmh WNW 3.1 mph5.0 kmh 29.90 in1012.5 mb 0.00 in0.0 mm 0.00 in0.0 mm 0.00 in0.0 mm
02:05 AM 41.0°F5.0°C 38.0°F3.3°C 89% 1.6 mph W2.6 kmh W 3.1 mph5.0 kmh 29.90 in1012.5 mb 0.00 in0.0 mm 0.00 in0.0 mm 0.00 in0.0 mm
02:10 AM 40.6°F4.8°C 38.2°F3.4°C 91% 1.6 mph W2.6 kmh W 5.4 mph8.7 kmh 29.90 in1012.5 mb 0.00 in0.0 mm 0.00 in0.0 mm 0.00 in0.0 mm
02:15 AM 40.6°F4.8°C 38.2°F3.4°C 91% 0.7 mph WSW1.1 kmh WSW 5.4 mph8.7 kmh 29.90 in1012.5 mb 0.00 in0.0 mm 0.00 in0.0 mm 0.00 in0.0 mm
02:20 AM 40.5°F4.7°C 38.0°F3.3°C 91% 0.7 mph WSW1.1 kmh WSW 3.8 mph6.1 kmh 29.90 in1012.5 mb 0.00 in0.0 mm 0.00 in0.0 mm 0.00 in0.0 mm
02:25 AM 40.3°F4.6°C 37.9°F3.3°C 91% 0.7 mph W1.1 kmh W 2.2 mph3.5 kmh 29.91 in1012.9 mb 0.00 in0.0 mm 0.00 in0.0 mm 0.00 in0.0 mm
02:30 AM 39.9°F4.4°C 37.8°F3.2°C 92% 2.2 mph W3.5 kmh W 3.1 mph5.0 kmh 29.91 in1012.9 mb 0.00 in0.0 mm 0.00 in0.0 mm 0.00 in0.0 mm
02:35 AM 39.7°F4.3°C 37.6°F3.1°C 92% Calm Calm 3.1 mph5.0 kmh 29.91 in1012.9 mb 0.00 in0.0 mm 0.00 in0.0 mm 0.00 in0.0 mm
02:40 AM 39.7°F4.3°C 37.6°F3.1°C 92% 2.2 mph SW3.5 kmh SW 3.8 mph6.1 kmh 29.91 in1012.9 mb 0.00 in0.0 mm 0.00 in0.0 mm 0.00 in0.0 mm
02:45 AM 39.7°F4.3°C 37.9°F3.3°C 93% 2.2 mph WSW3.5 kmh WSW 3.8 mph6.1 kmh 29.91 in1012.9 mb 0.00 in0.0 mm 0.00 in0.0 mm 0.00 in0.0 mm
02:50 AM 39.7°F4.3°C 37.9°F3.3°C 93% 1.6 mph W2.6 kmh W 3.8 mph6.1 kmh 29.91 in1012.9 mb 0.00 in0.0 mm 0.00 in0.0 mm 0.00 in0.0 mm
02:55 AM 39.6°F4.2°C 38.0°F3.3°C 94% 1.6 mph W2.6 kmh W 3.8 mph6.1 kmh 29.91 in1012.9 mb 0.00 in0.0 mm 0.00 in0.0 mm 0.00 in0.0 mm
03:00 AM 39.2°F4.0°C 37.4°F3.0°C 93% 0.7 mph WNW1.1 kmh WNW 3.1 mph5.0 kmh 29.91 in1012.9 mb 0.00 in0.0 mm 0.00 in0.0 mm 0.00 in0.0 mm
03:05 AM 39.0°F3.9°C 37.4°F3.0°C 94% 0.7 mph NW1.1 kmh NW 2.2 mph3.5 kmh 29.91 in1012.9 mb 0.00 in0.0 mm 0.00 in0.0 mm 0.00 in0.0 mm
03:10 AM 38.5°F3.6°C 36.9°F2.7°C 94% Calm Calm 1.6 mph2.6 kmh 29.91 in1012.9 mb 0.00 in0.0 mm 0.00 in0.0 mm 0.00 in0.0 mm
03:15 AM 38.3°F3.5°C 37.0°F2.8°C 95% 0.7 mph NW1.1 kmh NW 1.6 mph2.6 kmh 29.91 in1012.9 mb 0.00 in0.0 mm 0.00 in0.0 mm 0.00 in0.0 mm
03:20 AM 38.1°F3.4°C 36.8°F2.7°C 95% 2.2 mph NW3.5 kmh NW 3.1 mph5.0 kmh 29.91 in1012.9 mb 0.00 in0.0 mm 0.00 in0.0 mm 0.00 in0.0 mm
03:25 AM 37.9°F3.3°C 36.6°F2.6°C 95% 0.7 mph WNW1.1 kmh WNW 3.1 mph5.0 kmh 29.91 in1012.9 mb 0.00 in0.0 mm 0.00 in0.0 mm 0.00 in0.0 mm
03:30 AM 38.1°F3.4°C 36.8°F2.7°C 95% Calm Calm 3.1 mph5.0 kmh 29.90 in1012.5 mb 0.00 in0.0 mm 0.00 in0.0 mm 0.00 in0.0 mm
03:35 AM 38.1°F3.4°C 37.1°F2.8°C 96% 0.7 mph W1.1 kmh W 2.2 mph3.5 kmh 29.91 in1012.9 mb 0.00 in0.0 mm 0.00 in0.0 mm 0.00 in0.0 mm
03:40 AM 37.8°F3.2°C 36.7°F2.6°C 96% 0.7 mph NW1.1 kmh NW 2.2 mph3.5 kmh 29.90 in1012.5 mb 0.00 in0.0 mm 0.00 in0.0 mm 0.00 in0.0 mm
03:50 AM 37.2°F2.9°C 35.1°F1.7°C 92% 0.7 mph N1.1 kmh N 1.6 mph2.6 kmh 29.91 in1012.9 mb 0.00 in0.0 mm 0.00 in0.0 mm 0.00 in0.0 mm
03:55 AM 36.9°F2.7°C 34.8°F1.6°C 92% 1.6 mph N2.6 kmh N 3.1 mph5.0 kmh 29.91 in1012.9 mb 0.00 in0.0 mm 0.00 in0.0 mm 0.00 in0.0 mm
04:00 AM 36.7°F2.6°C 34.6°F1.4°C 92% 0.7 mph N1.1 kmh N 3.1 mph5.0 kmh 29.91 in1012.9 mb 0.00 in0.0 mm 0.00 in0.0 mm 0.00 in0.0 mm
04:05 AM 36.7°F2.6°C 34.6°F1.4°C 92% 0.7 mph NE1.1 kmh NE 2.2 mph3.5 kmh 29.91 in1012.9 mb 0.00 in0.0 mm 0.00 in0.0 mm 0.00 in0.0 mm
04:10 AM 36.3°F2.4°C 34.5°F1.4°C 93% 0.7 mph NE1.1 kmh NE 2.2 mph3.5 kmh 29.90 in1012.5 mb 0.00 in0.0 mm 0.00 in0.0 mm 0.00 in0.0 mm
04:15 AM 36.3°F2.4°C 34.5°F1.4°C 93% 1.6 mph NE2.6 kmh NE 2.2 mph3.5 kmh 29.91 in1012.9 mb 0.00 in0.0 mm 0.00 in0.0 mm 0.00 in0.0 mm
04:20 AM 36.1°F2.3°C 34.3°F1.3°C 93% 1.6 mph NE2.6 kmh NE 3.1 mph5.0 kmh 29.91 in1012.9 mb 0.00 in0.0 mm 0.00 in0.0 mm 0.00 in0.0 mm
04:25 AM 36.1°F2.3°C 34.6°F1.4°C 94% 1.6 mph NE2.6 kmh NE 3.8 mph6.1 kmh 29.91 in1012.9 mb 0.00 in0.0 mm 0.00 in0.0 mm 0.00 in0.0 mm
04:30 AM 36.1°F2.3°C 34.6°F1.4°C 94% 0.7 mph NNE1.1 kmh NNE 3.8 mph6.1 kmh 29.91 in1012.9 mb 0.00 in0.0 mm 0.00 in0.0 mm 0.00 in0.0 mm
04:35 AM 36.1°F2.3°C 34.6°F1.4°C 94% Calm Calm 2.2 mph3.5 kmh 29.91 in1012.9 mb 0.00 in0.0 mm 0.00 in0.0 mm 0.00 in0.0 mm
04:40 AM 36.3°F2.4°C 34.8°F1.6°C 94% Calm Calm 2.2 mph3.5 kmh 29.91 in1012.9 mb 0.00 in0.0 mm 0.00 in0.0 mm 0.00 in0.0 mm
04:45 AM 36.3°F2.4°C 35.0°F1.7°C 95% 1.6 mph ENE2.6 kmh ENE 2.2 mph3.5 kmh 29.90 in1012.5 mb 0.00 in0.0 mm 0.00 in0.0 mm 0.00 in0.0 mm
04:50 AM 36.1°F2.3°C 34.9°F1.6°C 95% 2.2 mph NNE3.5 kmh NNE 3.1 mph5.0 kmh 29.91 in1012.9 mb 0.00 in0.0 mm 0.00 in0.0 mm 0.00 in0.0 mm
04:55 AM 36.0°F2.2°C 34.7°F1.5°C 95% 1.6 mph N2.6 kmh N 3.1 mph5.0 kmh 29.91 in1012.9 mb 0.00 in0.0 mm 0.00 in0.0 mm 0.00 in0.0 mm
05:00 AM 35.6°F2.0°C 34.3°F1.3°C 95% 1.6 mph N2.6 kmh N 3.1 mph5.0 kmh 29.91 in1012.9 mb 0.00 in0.0 mm 0.00 in0.0 mm 0.00 in0.0 mm
05:05 AM 35.4°F1.9°C 34.4°F1.3°C 96% 2.2 mph N3.5 kmh N 3.1 mph5.0 kmh 29.91 in1012.9 mb 0.00 in0.0 mm 0.00 in0.0 mm 0.00 in0.0 mm
05:10 AM 35.2°F1.8°C 34.2°F1.2°C 96% 0.7 mph NNE1.1 kmh NNE 3.1 mph5.0 kmh 29.90 in1012.5 mb 0.00 in0.0 mm 0.00 in0.0 mm 0.00 in0.0 mm
05:15 AM 35.2°F1.8°C 34.2°F1.2°C 96% 2.2 mph NE3.5 kmh NE 3.1 mph5.0 kmh 29.90 in1012.5 mb 0.00 in0.0 mm 0.00 in0.0 mm 0.00 in0.0 mm
05:20 AM 35.2°F1.8°C 34.2°F1.2°C 96% 2.2 mph E3.5 kmh E 3.8 mph6.1 kmh 29.90 in1012.5 mb 0.00 in0.0 mm 0.00 in0.0 mm 0.00 in0.0 mm
05:25 AM 35.2°F1.8°C 34.2°F1.2°C 96% 2.2 mph E3.5 kmh E 3.8 mph6.1 kmh 29.90 in1012.5 mb 0.00 in0.0 mm 0.00 in0.0 mm 0.00 in0.0 mm
05:30 AM 35.2°F1.8°C 34.2°F1.2°C 96% 1.6 mph E2.6 kmh E 3.8 mph6.1 kmh 29.91 in1012.9 mb 0.00 in0.0 mm 0.00 in0.0 mm 0.00 in0.0 mm
05:35 AM 35.1°F1.7°C 34.0°F1.1°C 96% 1.6 mph E2.6 kmh E 3.8 mph6.1 kmh 29.91 in1012.9 mb 0.00 in0.0 mm 0.00 in0.0 mm 0.00 in0.0 mm
05:40 AM 35.1°F1.7°C 34.0°F1.1°C 96% 0.7 mph E1.1 kmh E 3.1 mph5.0 kmh 29.90 in1012.5 mb 0.00 in0.0 mm 0.00 in0.0 mm 0.00 in0.0 mm
05:45 AM 34.9°F1.6°C 34.1°F1.2°C 97% 1.6 mph NE2.6 kmh NE 2.2 mph3.5 kmh 29.90 in1012.5 mb 0.00 in0.0 mm 0.00 in0.0 mm 0.00 in0.0 mm
05:50 AM 35.1°F1.7°C 34.3°F1.3°C 97% 3.1 mph NE5.0 kmh NE 4.5 mph7.2 kmh 29.90 in1012.5 mb 0.00 in0.0 mm 0.00 in0.0 mm 0.00 in0.0 mm
05:55 AM 35.2°F1.8°C 34.5°F1.4°C 97% 2.2 mph NE3.5 kmh NE 5.4 mph8.7 kmh 29.90 in1012.5 mb 0.00 in0.0 mm 0.00 in0.0 mm 0.00 in0.0 mm
06:00 AM 35.2°F1.8°C 34.5°F1.4°C 97% 2.2 mph NE3.5 kmh NE 5.4 mph8.7 kmh 29.90 in1012.5 mb 0.00 in0.0 mm 0.00 in0.0 mm 0.00 in0.0 mm
06:05 AM 35.2°F1.8°C 34.5°F1.4°C 97% 2.2 mph NE3.5 kmh NE 3.8 mph6.1 kmh 29.91 in1012.9 mb 0.00 in0.0 mm 0.00 in0.0 mm 0.00 in0.0 mm
06:10 AM 35.6°F2.0°C 34.8°F1.6°C 97% 1.6 mph NE2.6 kmh NE 3.8 mph6.1 kmh 29.91 in1012.9 mb 0.00 in0.0 mm 0.00 in0.0 mm 0.00 in0.0 mm
06:15 AM 35.8°F2.1°C 35.0°F1.7°C 97% 2.2 mph NE3.5 kmh NE 3.8 mph6.1 kmh 29.91 in1012.9 mb 0.00 in0.0 mm 0.00 in0.0 mm 0.00 in0.0 mm
06:20 AM 35.8°F2.1°C 35.0°F1.7°C 97% 0.7 mph NE1.1 kmh NE 3.8 mph6.1 kmh 29.90 in1012.5 mb 0.00 in0.0 mm 0.00 in0.0 mm 0.00 in0.0 mm
06:25 AM 35.8°F2.1°C 35.0°F1.7°C 97% 1.6 mph NNE2.6 kmh NNE 3.8 mph6.1 kmh 29.90 in1012.5 mb 0.00 in0.0 mm 0.00 in0.0 mm 0.00 in0.0 mm
06:30 AM 35.8°F2.1°C 35.0°F1.7°C 97% 1.6 mph NNE2.6 kmh NNE 4.5 mph7.2 kmh 29.90 in1012.5 mb 0.00 in0.0 mm 0.00 in0.0 mm 0.00 in0.0 mm
06:35 AM 36.0°F2.2°C 35.2°F1.8°C 97% 3.1 mph NE5.0 kmh NE 4.5 mph7.2 kmh 29.91 in1012.9 mb 0.00 in0.0 mm 0.00 in0.0 mm 0.00 in0.0 mm
06:40 AM 36.1°F2.3°C 35.4°F1.9°C 97% 3.1 mph NE5.0 kmh NE 4.5 mph7.2 kmh 29.91 in1012.9 mb 0.00 in0.0 mm 0.00 in0.0 mm 0.00 in0.0 mm
06:45 AM 36.5°F2.5°C 35.7°F2.1°C 97% 3.1 mph NE5.0 kmh NE 6.0 mph9.7 kmh 29.91 in1012.9 mb 0.00 in0.0 mm 0.00 in0.0 mm 0.00 in0.0 mm
06:50 AM 36.7°F2.6°C 35.9°F2.2°C 97% 0.7 mph NE1.1 kmh NE 6.0 mph9.7 kmh 29.91 in1012.9 mb 0.00 in0.0 mm 0.00 in0.0 mm 0.00 in0.0 mm
06:55 AM 36.7°F2.6°C 35.9°F2.2°C 97% 1.6 mph NE2.6 kmh NE 4.5 mph7.2 kmh 29.91 in1012.9 mb 0.00 in0.0 mm 0.00 in0.0 mm 0.00 in0.0 mm
07:00 AM 36.9°F2.7°C 36.1°F2.3°C 97% 2.2 mph ENE3.5 kmh ENE 3.8 mph6.1 kmh 29.91 in1012.9 mb 0.00 in0.0 mm 0.00 in0.0 mm 0.00 in0.0 mm
07:05 AM 36.9°F2.7°C 36.1°F2.3°C 97% 1.6 mph E2.6 kmh E 3.8 mph6.1 kmh 29.91 in1012.9 mb 0.00 in0.0 mm 0.00 in0.0 mm 0.00 in0.0 mm
07:10 AM 36.9°F2.7°C 36.1°F2.3°C 97% 2.2 mph E3.5 kmh E 3.8 mph6.1 kmh 29.91 in1012.9 mb 0.00 in0.0 mm 0.00 in0.0 mm 0.00 in0.0 mm
07:15 AM 36.9°F2.7°C 36.1°F2.3°C 97% 1.6 mph E2.6 kmh E 3.8 mph6.1 kmh 29.91 in1012.9 mb 0.00 in0.0 mm 0.00 in0.0 mm 0.00 in0.0 mm
07:20 AM 36.9°F2.7°C 36.1°F2.3°C 97% 2.2 mph NE3.5 kmh NE 3.8 mph6.1 kmh 29.91 in1012.9 mb 0.00 in0.0 mm 0.00 in0.0 mm 0.00 in0.0 mm
07:25 AM 36.9°F2.7°C 36.1°F2.3°C 97% 2.2 mph NE3.5 kmh NE 3.8 mph6.1 kmh 29.91 in1012.9 mb 0.00 in0.0 mm 0.00 in0.0 mm 0.00 in0.0 mm
07:30 AM 37.0°F2.8°C 36.3°F2.4°C 97% 1.6 mph NE2.6 kmh NE 3.8 mph6.1 kmh 29.91 in1012.9 mb 0.00 in0.0 mm 0.00 in0.0 mm 0.00 in0.0 mm
07:35 AM 37.2°F2.9°C 36.5°F2.5°C 97% 0.7 mph NE1.1 kmh NE 3.8 mph6.1 kmh 29.91 in1012.9 mb 0.00 in0.0 mm 0.00 in0.0 mm 0.00 in0.0 mm
07:40 AM 37.2°F2.9°C 36.5°F2.5°C 97% 0.7 mph NNE1.1 kmh NNE 3.8 mph6.1 kmh 29.91 in1012.9 mb 0.00 in0.0 mm 0.00 in0.0 mm 0.00 in0.0 mm
07:45 AM 37.2°F2.9°C 36.5°F2.5°C 97% Calm Calm 2.2 mph3.5 kmh 29.91 in1012.9 mb 0.00 in0.0 mm 0.00 in0.0 mm 0.00 in0.0 mm
07:50 AM 37.4°F3.0°C 37.1°F2.8°C 99% 1.6 mph NE2.6 kmh NE 2.2 mph3.5 kmh 29.91 in1012.9 mb 0.00 in0.0 mm 0.00 in0.0 mm 0.00 in0.0 mm
07:55 AM 37.4°F3.0°C 37.1°F2.8°C 99% Calm Calm 2.2 mph3.5 kmh 29.91 in1012.9 mb 0.00 in0.0 mm 0.00 in0.0 mm 0.00 in0.0 mm
08:00 AM 37.6°F3.1°C 37.3°F2.9°C 99% 0.7 mph NNE1.1 kmh NNE 2.2 mph3.5 kmh 29.91 in1012.9 mb 0.00 in0.0 mm 0.00 in0.0 mm 0.00 in0.0 mm
08:05 AM 37.6°F3.1°C 37.3°F2.9°C 99% Calm Calm 1.6 mph2.6 kmh 29.92 in1013.2 mb 0.00 in0.0 mm 0.00 in0.0 mm 0.00 in0.0 mm
08:10 AM 37.8°F3.2°C 37.5°F3.1°C 99% 0.7 mph W1.1 kmh W 2.2 mph3.5 kmh 29.92 in1013.2 mb 0.00 in0.0 mm 0.00 in0.0 mm 0.00 in0.0 mm
08:15 AM 37.8°F3.2°C 37.5°F3.1°C 99% Calm Calm 2.2 mph3.5 kmh 29.92 in1013.2 mb 0.00 in0.0 mm 0.00 in0.0 mm 0.00 in0.0 mm
08:20 AM 37.9°F3.3°C 37.7°F3.2°C 99% Calm Calm 1.6 mph2.6 kmh 29.92 in1013.2 mb 0.00 in0.0 mm 0.00 in0.0 mm 0.00 in0.0 mm
08:25 AM 38.1°F3.4°C 37.9°F3.3°C 99% Calm Calm 3.1 mph5.0 kmh 29.92 in1013.2 mb 0.00 in0.0 mm 0.00 in0.0 mm 0.00 in0.0 mm
08:30 AM 38.1°F3.4°C 37.9°F3.3°C 99% 0.7 mph NW1.1 kmh NW 3.1 mph5.0 kmh 29.92 in1013.2 mb 0.00 in0.0 mm 0.00 in0.0 mm 0.00 in0.0 mm
08:35 AM 38.3°F3.5°C 38.0°F3.3°C 99% 1.6 mph N2.6 kmh N 3.1 mph5.0 kmh 29.92 in1013.2 mb 0.00 in0.0 mm 0.00 in0.0 mm 0.00 in0.0 mm
08:40 AM 38.5°F3.6°C 38.2°F3.4°C 99% 0.7 mph SE1.1 kmh SE 3.1 mph5.0 kmh 29.92 in1013.2 mb 0.00 in0.0 mm 0.00 in0.0 mm 0.00 in0.0 mm
08:45 AM 38.7°F3.7°C 38.4°F3.6°C 99% Calm Calm 3.1 mph5.0 kmh 29.92 in1013.2 mb 0.00 in0.0 mm 0.00 in0.0 mm 0.00 in0.0 mm
08:50 AM 38.8°F3.8°C 38.6°F3.7°C 99% 1.6 mph N2.6 kmh N 2.2 mph3.5 kmh 29.92 in1013.2 mb 0.00 in0.0 mm 0.00 in0.0 mm 0.00 in0.0 mm
08:55 AM 39.0°F3.9°C 38.8°F3.8°C 99% 1.6 mph ENE2.6 kmh ENE 3.1 mph5.0 kmh 29.92 in1013.2 mb 0.00 in0.0 mm 0.00 in0.0 mm 0.00 in0.0 mm
09:00 AM 39.2°F4.0°C 38.9°F3.8°C 99% 2.2 mph E3.5 kmh E 3.1 mph5.0 kmh 29.91 in1012.9 mb 0.00 in0.0 mm 0.00 in0.0 mm 0.00 in0.0 mm
09:05 AM 39.4°F4.1°C 39.1°F3.9°C 99% 1.6 mph E2.6 kmh E 3.8 mph6.1 kmh 29.92 in1013.2 mb 0.00 in0.0 mm 0.00 in0.0 mm 0.00 in0.0 mm
09:10 AM 39.6°F4.2°C 39.3°F4.1°C 99% 0.7 mph E1.1 kmh E 3.8 mph6.1 kmh 29.91 in1012.9 mb 0.00 in0.0 mm 0.00 in0.0 mm 0.00 in0.0 mm
09:15 AM 39.7°F4.3°C 39.5°F4.2°C 99% 1.6 mph NE2.6 kmh NE 3.1 mph5.0 kmh 29.91 in1012.9 mb 0.00 in0.0 mm 0.00 in0.0 mm 0.00 in0.0 mm
09:20 AM 39.9°F4.4°C 39.7°F4.3°C 99% 3.1 mph NNE5.0 kmh NNE 4.5 mph7.2 kmh 29.91 in1012.9 mb 0.00 in0.0 mm 0.00 in0.0 mm 0.00 in0.0 mm
09:25 AM 40.3°F4.6°C 40.0°F4.4°C 99% 3.1 mph NNE5.0 kmh NNE 4.5 mph7.2 kmh 29.92 in1013.2 mb 0.00 in0.0 mm 0.00 in0.0 mm 0.00 in0.0 mm
09:30 AM 40.5°F4.7°C 40.2°F4.6°C 99% 1.6 mph NE2.6 kmh NE 5.4 mph8.7 kmh 29.92 in1013.2 mb 0.00 in0.0 mm 0.00 in0.0 mm 0.00 in0.0 mm
09:35 AM 40.8°F4.9°C 40.6°F4.8°C 99% 2.2 mph NE3.5 kmh NE 6.0 mph9.7 kmh 29.92 in1013.2 mb 0.00 in0.0 mm 0.00 in0.0 mm 0.00 in0.0 mm
09:40 AM 41.0°F5.0°C 40.7°F4.8°C 99% 2.2 mph NE3.5 kmh NE 6.0 mph9.7 kmh 29.92 in1013.2 mb 0.00 in0.0 mm 0.00 in0.0 mm 0.00 in0.0 mm
09:45 AM 41.4°F5.2°C 41.1°F5.1°C 99% 3.1 mph NNE5.0 kmh NNE 5.4 mph8.7 kmh 29.92 in1013.2 mb 0.00 in0.0 mm 0.00 in0.0 mm 0.00 in0.0 mm
09:50 AM 41.5°F5.3°C 41.3°F5.2°C 99% 3.8 mph NE6.1 kmh NE 5.4 mph8.7 kmh 29.92 in1013.2 mb 0.00 in0.0 mm 0.00 in0.0 mm 0.00 in0.0 mm
09:55 AM 42.1°F5.6°C 41.8°F5.4°C 99% 3.8 mph NE6.1 kmh NE 5.4 mph8.7 kmh 29.92 in1013.2 mb 0.00 in0.0 mm 0.00 in0.0 mm 0.00 in0.0 mm
10:00 AM 42.3°F5.7°C 42.0°F5.6°C 99% 3.1 mph NNE5.0 kmh NNE 5.4 mph8.7 kmh 29.92 in1013.2 mb 0.00 in0.0 mm 0.00 in0.0 mm 0.00 in0.0 mm
10:05 AM 42.8°F6.0°C 42.3°F5.7°C 98% 3.8 mph NNE6.1 kmh NNE 6.0 mph9.7 kmh 29.92 in1013.2 mb 0.00 in0.0 mm 0.00 in0.0 mm 0.00 in0.0 mm
10:10 AM 43.3°F6.3°C 42.5°F5.8°C 97% 3.8 mph NE6.1 kmh NE 6.0 mph9.7 kmh 29.91 in1012.9 mb 0.00 in0.0 mm 0.00 in0.0 mm 0.00 in0.0 mm
10:15 AM 43.9°F6.6°C 42.5°F5.8°C 95% 2.2 mph NE3.5 kmh NE 6.0 mph9.7 kmh 29.92 in1013.2 mb 0.00 in0.0 mm 0.00 in0.0 mm 0.00 in0.0 mm
10:20 AM 44.1°F6.7°C 42.4°F5.8°C 94% 4.5 mph NNE7.2 kmh NNE 6.0 mph9.7 kmh 29.92 in1013.2 mb 0.00 in0.0 mm 0.00 in0.0 mm 0.00 in0.0 mm
10:25 AM 44.2°F6.8°C 42.1°F5.6°C 92% 3.1 mph NNE5.0 kmh NNE 6.0 mph9.7 kmh 29.92 in1013.2 mb 0.00 in0.0 mm 0.00 in0.0 mm 0.00 in0.0 mm
10:30 AM 44.4°F6.9°C 41.7°F5.4°C 90% 2.2 mph NNE3.5 kmh NNE 6.0 mph9.7 kmh 29.92 in1013.2 mb 0.00 in0.0 mm 0.00 in0.0 mm 0.00 in0.0 mm
10:35 AM 45.0°F7.2°C 41.6°F5.3°C 88% 2.2 mph NE3.5 kmh NE 3.8 mph6.1 kmh 29.91 in1012.9 mb 0.00 in0.0 mm 0.00 in0.0 mm 0.00 in0.0 mm
10:40 AM 45.7°F7.6°C 42.0°F5.6°C 87% 1.6 mph E2.6 kmh E 4.5 mph7.2 kmh 29.91 in1012.9 mb 0.00 in0.0 mm 0.00 in0.0 mm 0.00 in0.0 mm
10:45 AM 46.4°F8.0°C 42.4°F5.8°C 86% 2.2 mph ENE3.5 kmh ENE 4.5 mph7.2 kmh 29.91 in1012.9 mb 0.00 in0.0 mm 0.00 in0.0 mm 0.00 in0.0 mm
10:50 AM 46.6°F8.1°C 42.3°F5.7°C 85% 3.8 mph NE6.1 kmh NE 6.0 mph9.7 kmh 29.92 in1013.2 mb 0.00 in0.0 mm 0.00 in0.0 mm 0.00 in0.0 mm
10:55 AM 46.4°F8.0°C 41.5°F5.3°C 83% 1.6 mph NNE2.6 kmh NNE 6.0 mph9.7 kmh 29.92 in1013.2 mb 0.00 in0.0 mm 0.00 in0.0 mm 0.00 in0.0 mm
11:00 AM 46.2°F7.9°C 41.0°F5.0°C 82% 3.1 mph NNE5.0 kmh NNE 5.4 mph8.7 kmh 29.92 in1013.2 mb 0.00 in0.0 mm 0.00 in0.0 mm 0.00 in0.0 mm
11:05 AM 46.2°F7.9°C 40.7°F4.8°C 81% 0.7 mph NNE1.1 kmh NNE 5.4 mph8.7 kmh 29.92 in1013.2 mb 0.00 in0.0 mm 0.00 in0.0 mm 0.00 in0.0 mm
11:10 AM 46.2°F7.9°C 40.7°F4.8°C 81% 2.2 mph NNW3.5 kmh NNW 5.4 mph8.7 kmh 29.92 in1013.2 mb 0.00 in0.0 mm 0.00 in0.0 mm 0.00 in0.0 mm
11:15 AM 46.0°F7.8°C 40.9°F4.9°C 82% 0.7 mph NNW1.1 kmh NNW 3.8 mph6.1 kmh 29.92 in1013.2 mb 0.00 in0.0 mm 0.00 in0.0 mm 0.00 in0.0 mm
11:20 AM 46.2°F7.9°C 41.0°F5.0°C 82% 1.6 mph N2.6 kmh N 4.5 mph7.2 kmh 29.92 in1013.2 mb 0.00 in0.0 mm 0.00 in0.0 mm 0.00 in0.0 mm
11:25 AM 46.8°F8.2°C 41.6°F5.3°C 82% 0.7 mph NNW1.1 kmh NNW 4.5 mph7.2 kmh 29.92 in1013.2 mb 0.00 in0.0 mm 0.00 in0.0 mm 0.00 in0.0 mm
11:30 AM 47.7°F8.7°C 42.1°F5.6°C 81% Calm Calm 3.1 mph5.0 kmh 29.92 in1013.2 mb 0.00 in0.0 mm 0.00 in0.0 mm 0.00 in0.0 mm
11:35 AM 48.4°F9.1°C 42.2°F5.7°C 79% 0.7 mph W1.1 kmh W 3.1 mph5.0 kmh 29.92 in1013.2 mb 0.00 in0.0 mm 0.00 in0.0 mm 0.00 in0.0 mm
11:40 AM 48.9°F9.4°C 42.4°F5.8°C 78% Calm Calm 3.1 mph5.0 kmh 29.92 in1013.2 mb 0.00 in0.0 mm 0.00 in0.0 mm 0.00 in0.0 mm
11:45 AM 49.1°F9.5°C 42.5°F5.8°C 78% 0.7 mph NW1.1 kmh NW 3.8 mph6.1 kmh 29.92 in1013.2 mb 0.00 in0.0 mm 0.00 in0.0 mm 0.00 in0.0 mm
11:50 AM 49.1°F9.5°C 42.5°F5.8°C 78% 1.6 mph NNW2.6 kmh NNW 3.8 mph6.1 kmh 29.92 in1013.2 mb 0.00 in0.0 mm 0.00 in0.0 mm 0.00 in0.0 mm
11:55 AM 48.7°F9.3°C 41.9°F5.5°C 77% 3.1 mph NW5.0 kmh NW 5.4 mph8.7 kmh 29.92 in1013.2 mb 0.00 in0.0 mm 0.00 in0.0 mm 0.00 in0.0 mm
12:00 PM 48.4°F9.1°C 41.5°F5.3°C 77% 3.8 mph NW6.1 kmh NW 5.4 mph8.7 kmh 29.92 in1013.2 mb 0.00 in0.0 mm 0.00 in0.0 mm 0.00 in0.0 mm
12:05 PM 48.2°F9.0°C 41.3°F5.2°C 77% 2.2 mph WNW3.5 kmh WNW 5.4 mph8.7 kmh 29.92 in1013.2 mb 0.00 in0.0 mm 0.00 in0.0 mm 0.00 in0.0 mm
12:10 PM 48.4°F9.1°C 41.2°F5.1°C 76% 0.7 mph W1.1 kmh W 5.4 mph8.7 kmh 29.92 in1013.2 mb 0.00 in0.0 mm 0.00 in0.0 mm 0.00 in0.0 mm
12:15 PM 48.6°F9.2°C 41.3°F5.2°C 76% 0.7 mph WSW1.1 kmh WSW 3.8 mph6.1 kmh 29.92 in1013.2 mb 0.00 in0.0 mm 0.00 in0.0 mm 0.00 in0.0 mm
12:20 PM 48.6°F9.2°C 41.0°F5.0°C 75% 1.6 mph ENE2.6 kmh ENE 3.8 mph6.1 kmh 29.91 in1012.9 mb 0.00 in0.0 mm 0.00 in0.0 mm 0.00 in0.0 mm
12:25 PM 48.9°F9.4°C 41.7°F5.4°C 76% 2.2 mph E3.5 kmh E 4.5 mph7.2 kmh 29.92 in1013.2 mb 0.00 in0.0 mm 0.00 in0.0 mm 0.00 in0.0 mm
12:30 PM 48.7°F9.3°C 41.2°F5.1°C 75% 1.6 mph NE2.6 kmh NE 4.5 mph7.2 kmh 29.91 in1012.9 mb 0.00 in0.0 mm 0.00 in0.0 mm 0.00 in0.0 mm
12:35 PM 48.9°F9.4°C 41.4°F5.2°C 75% 0.7 mph N1.1 kmh N 3.1 mph5.0 kmh 29.91 in1012.9 mb 0.00 in0.0 mm 0.00 in0.0 mm 0.00 in0.0 mm
12:40 PM 49.1°F9.5°C 41.5°F5.3°C 75% 1.6 mph W2.6 kmh W 3.1 mph5.0 kmh 29.91 in1012.9 mb 0.00 in0.0 mm 0.00 in0.0 mm 0.00 in0.0 mm
12:45 PM 49.3°F9.6°C 41.7°F5.4°C 75% 1.6 mph W2.6 kmh W 3.1 mph5.0 kmh 29.91 in1012.9 mb 0.00 in0.0 mm 0.00 in0.0 mm 0.00 in0.0 mm
12:50 PM 49.3°F9.6°C 41.7°F5.4°C 75% 0.7 mph SW1.1 kmh SW 3.1 mph5.0 kmh 29.91 in1012.9 mb 0.00 in0.0 mm 0.00 in0.0 mm 0.00 in0.0 mm
12:55 PM 49.3°F9.6°C 41.4°F5.2°C 74% 2.2 mph SW3.5 kmh SW 4.5 mph7.2 kmh 29.90 in1012.5 mb 0.00 in0.0 mm 0.00 in0.0 mm 0.00 in0.0 mm
01:00 PM 49.1°F9.5°C 41.5°F5.3°C 75% 3.8 mph N6.1 kmh N 5.4 mph8.7 kmh 29.91 in1012.9 mb 0.00 in0.0 mm 0.00 in0.0 mm 0.00 in0.0 mm
01:05 PM 48.9°F9.4°C 41.4°F5.2°C 75% 1.6 mph NNE2.6 kmh NNE 5.4 mph8.7 kmh 29.91 in1012.9 mb 0.00 in0.0 mm 0.00 in0.0 mm 0.00 in0.0 mm
01:10 PM 48.9°F9.4°C 41.4°F5.2°C 75% 2.2 mph NE3.5 kmh NE 5.4 mph8.7 kmh 29.90 in1012.5 mb 0.00 in0.0 mm 0.00 in0.0 mm 0.00 in0.0 mm
01:15 PM 49.1°F9.5°C 41.9°F5.5°C 76% 1.6 mph NNE2.6 kmh NNE 6.0 mph9.7 kmh 29.90 in1012.5 mb 0.00 in0.0 mm 0.00 in0.0 mm 0.00 in0.0 mm
01:20 PM 49.5°F9.7°C 41.9°F5.5°C 75% 2.2 mph NNE3.5 kmh NNE 6.0 mph9.7 kmh 29.90 in1012.5 mb 0.00 in0.0 mm 0.00 in0.0 mm 0.00 in0.0 mm
01:25 PM 49.6°F9.8°C 42.0°F5.6°C 75% 3.1 mph N5.0 kmh N 5.4 mph8.7 kmh 29.90 in1012.5 mb 0.00 in0.0 mm 0.00 in0.0 mm 0.00 in0.0 mm
01:30 PM 50.0°F10.0°C 42.0°F5.6°C 74% 0.7 mph N1.1 kmh N 5.4 mph8.7 kmh 29.90 in1012.5 mb 0.00 in0.0 mm 0.00 in0.0 mm 0.00 in0.0 mm
01:35 PM 50.2°F10.1°C 42.2°F5.7°C 74% 3.1 mph N5.0 kmh N 5.4 mph8.7 kmh 29.89 in1012.2 mb 0.00 in0.0 mm 0.00 in0.0 mm 0.00 in0.0 mm
01:40 PM 50.4°F10.2°C 42.0°F5.6°C 73% 2.2 mph NNE3.5 kmh NNE 4.5 mph7.2 kmh 29.89 in1012.2 mb 0.00 in0.0 mm 0.00 in0.0 mm 0.00 in0.0 mm
01:45 PM 50.7°F10.4°C 42.4°F5.8°C 73% 2.2 mph NE3.5 kmh NE 4.5 mph7.2 kmh 29.89 in1012.2 mb 0.00 in0.0 mm 0.00 in0.0 mm 0.00 in0.0 mm
01:50 PM 51.1°F10.6°C 42.7°F5.9°C 73% 3.1 mph NE5.0 kmh NE 6.9 mph11.1 kmh 29.89 in1012.2 mb 0.00 in0.0 mm 0.00 in0.0 mm 0.00 in0.0 mm
01:55 PM 51.6°F10.9°C 43.3°F6.3°C 73% 1.6 mph NNE2.6 kmh NNE 6.9 mph11.1 kmh 29.88 in1011.9 mb 0.00 in0.0 mm 0.00 in0.0 mm 0.00 in0.0 mm
02:00 PM 51.6°F10.9°C 42.5°F5.8°C 71% 4.5 mph NE7.2 kmh NE 6.9 mph11.1 kmh 29.88 in1011.9 mb 0.00 in0.0 mm 0.00 in0.0 mm 0.00 in0.0 mm
02:05 PM 51.8°F11.0°C 42.0°F5.6°C 69% 1.6 mph SE2.6 kmh SE 6.9 mph11.1 kmh 29.87 in1011.5 mb 0.00 in0.0 mm 0.00 in0.0 mm 0.00 in0.0 mm
02:10 PM 51.8°F11.0°C 41.6°F5.3°C 68% 3.1 mph SE5.0 kmh SE 6.9 mph11.1 kmh 29.87 in1011.5 mb 0.00 in0.0 mm 0.00 in0.0 mm 0.00 in0.0 mm
02:15 PM 51.4°F10.8°C 41.2°F5.1°C 68% 2.2 mph E3.5 kmh E 7.6 mph12.2 kmh 29.87 in1011.5 mb 0.00 in0.0 mm 0.00 in0.0 mm 0.00 in0.0 mm
02:20 PM 51.3°F10.7°C 41.1°F5.1°C 68% 2.2 mph ENE3.5 kmh ENE 7.6 mph12.2 kmh 29.87 in1011.5 mb 0.00 in0.0 mm 0.00 in0.0 mm 0.00 in0.0 mm
02:25 PM 51.3°F10.7°C 41.4°F5.2°C 69% 3.1 mph ENE5.0 kmh ENE 5.4 mph8.7 kmh 29.87 in1011.5 mb 0.00 in0.0 mm 0.00 in0.0 mm 0.00 in0.0 mm
02:30 PM 51.3°F10.7°C 41.1°F5.1°C 68% 1.6 mph ENE2.6 kmh ENE 8.3 mph13.4 kmh 29.87 in1011.5 mb 0.00 in0.0 mm 0.00 in0.0 mm 0.00 in0.0 mm
02:35 PM 51.4°F10.8°C 41.2°F5.1°C 68% 0.7 mph ENE1.1 kmh ENE 8.3 mph13.4 kmh 29.86 in1011.2 mb 0.00 in0.0 mm 0.00 in0.0 mm 0.00 in0.0 mm
02:40 PM 51.6°F10.9°C 41.4°F5.2°C 68% 3.1 mph ENE5.0 kmh ENE 7.6 mph12.2 kmh 29.86 in1011.2 mb 0.00 in0.0 mm 0.00 in0.0 mm 0.00 in0.0 mm
02:45 PM 51.4°F10.8°C 40.9°F4.9°C 67% 4.5 mph NE7.2 kmh NE 10.7 mph17.2 kmh 29.86 in1011.2 mb 0.00 in0.0 mm 0.00 in0.0 mm 0.00 in0.0 mm
02:50 PM 51.1°F10.6°C 40.9°F4.9°C 68% 3.8 mph NNE6.1 kmh NNE 10.7 mph17.2 kmh 29.86 in1011.2 mb 0.00 in0.0 mm 0.00 in0.0 mm 0.00 in0.0 mm
02:55 PM 50.9°F10.5°C 40.3°F4.6°C 67% 4.5 mph E7.2 kmh E 7.6 mph12.2 kmh 29.86 in1011.2 mb 0.00 in0.0 mm 0.00 in0.0 mm 0.00 in0.0 mm
03:00 PM 50.7°F10.4°C 40.2°F4.6°C 67% 3.1 mph E5.0 kmh E 7.6 mph12.2 kmh 29.85 in1010.8 mb 0.00 in0.0 mm 0.00 in0.0 mm 0.00 in0.0 mm
03:05 PM 50.5°F10.3°C 40.8°F4.9°C 69% 3.1 mph E5.0 kmh E 6.0 mph9.7 kmh 29.86 in1011.2 mb 0.00 in0.0 mm 0.00 in0.0 mm 0.00 in0.0 mm
03:10 PM 50.4°F10.2°C 41.3°F5.2°C 71% 3.8 mph ENE6.1 kmh ENE 5.4 mph8.7 kmh 29.86 in1011.2 mb 0.00 in0.0 mm 0.00 in0.0 mm 0.00 in0.0 mm
03:15 PM 50.2°F10.1°C 41.9°F5.5°C 73% 1.6 mph NNE2.6 kmh NNE 5.4 mph8.7 kmh 29.86 in1011.2 mb 0.00 in0.0 mm 0.00 in0.0 mm 0.00 in0.0 mm
03:20 PM 50.0°F10.0°C 41.7°F5.4°C 73% 1.6 mph NNE2.6 kmh NNE 5.4 mph8.7 kmh 29.86 in1011.2 mb 0.00 in0.0 mm 0.00 in0.0 mm 0.00 in0.0 mm
03:25 PM 49.8°F9.9°C 42.6°F5.9°C 76% 0.7 mph N1.1 kmh N 3.1 mph5.0 kmh 29.86 in1011.2 mb 0.00 in0.0 mm 0.00 in0.0 mm 0.00 in0.0 mm
03:30 PM 49.6°F9.8°C 42.4°F5.8°C 76% 1.6 mph N2.6 kmh N 2.2 mph3.5 kmh 29.86 in1011.2 mb 0.00 in0.0 mm 0.00 in0.0 mm 0.00 in0.0 mm
03:35 PM 49.5°F9.7°C 42.2°F5.7°C 76% 3.1 mph NNE5.0 kmh NNE 4.5 mph7.2 kmh 29.86 in1011.2 mb 0.00 in0.0 mm 0.00 in0.0 mm 0.00 in0.0 mm
03:40 PM 49.3°F9.6°C 42.4°F5.8°C 77% 3.1 mph NE5.0 kmh NE 4.5 mph7.2 kmh 29.85 in1010.8 mb 0.00 in0.0 mm 0.00 in0.0 mm 0.00 in0.0 mm
03:45 PM 49.1°F9.5°C 42.2°F5.7°C 77% 1.6 mph NE2.6 kmh NE 4.5 mph7.2 kmh 29.85 in1010.8 mb 0.00 in0.0 mm 0.00 in0.0 mm 0.00 in0.0 mm
03:50 PM 48.9°F9.4°C 42.4°F5.8°C 78% 0.7 mph ENE1.1 kmh ENE 4.5 mph7.2 kmh 29.86 in1011.2 mb 0.00 in0.0 mm 0.00 in0.0 mm 0.00 in0.0 mm
03:55 PM 48.9°F9.4°C 42.4°F5.8°C 78% 3.8 mph E6.1 kmh E 4.5 mph7.2 kmh 29.86 in1011.2 mb 0.00 in0.0 mm 0.00 in0.0 mm 0.00 in0.0 mm
04:00 PM 48.9°F9.4°C 42.4°F5.8°C 78% 1.6 mph ESE2.6 kmh ESE 4.5 mph7.2 kmh 29.86 in1011.2 mb 0.00 in0.0 mm 0.00 in0.0 mm 0.00 in0.0 mm
04:05 PM 48.7°F9.3°C 42.2°F5.7°C 78% 0.7 mph ESE1.1 kmh ESE 4.5 mph7.2 kmh 29.86 in1011.2 mb 0.01 in0.3 mm 0.12 in3.0 mm 0.01 in0.3 mm
04:10 PM 48.7°F9.3°C 42.2°F5.7°C 78% Calm Calm 3.1 mph5.0 kmh 29.86 in1011.2 mb 0.01 in0.3 mm 0.00 in0.0 mm 0.01 in0.3 mm
04:15 PM 48.6°F9.2°C 42.7°F5.9°C 80% 0.7 mph NE1.1 kmh NE 3.1 mph5.0 kmh 29.86 in1011.2 mb 0.01 in0.3 mm 0.00 in0.0 mm 0.01 in0.3 mm
04:20 PM 48.4°F9.1°C 42.8°F6.0°C 81% 0.7 mph NNE1.1 kmh NNE 3.1 mph5.0 kmh 29.87 in1011.5 mb 0.02 in0.5 mm 0.12 in3.0 mm 0.02 in0.5 mm
04:25 PM 48.2°F9.0°C 43.3°F6.3°C 83% 1.6 mph N2.6 kmh N 3.1 mph5.0 kmh 29.86 in1011.2 mb 0.04 in1.0 mm 0.24 in6.1 mm 0.04 in1.0 mm
04:30 PM 47.8°F8.8°C 43.9°F6.6°C 86% 3.1 mph NNE5.0 kmh NNE 3.8 mph6.1 kmh 29.86 in1011.2 mb 0.06 in1.5 mm 0.24 in6.1 mm 0.06 in1.5 mm
04:35 PM 47.7°F8.7°C 43.7°F6.5°C 86% 1.6 mph NE2.6 kmh NE 3.8 mph6.1 kmh 29.86 in1011.2 mb 0.06 in1.5 mm 0.00 in0.0 mm 0.06 in1.5 mm
04:40 PM 47.7°F8.7°C 44.0°F6.7°C 87% 2.2 mph NE3.5 kmh NE 3.8 mph6.1 kmh 29.86 in1011.2 mb 0.07 in1.8 mm 0.12 in3.0 mm 0.07 in1.8 mm
04:45 PM 48.6°F9.2°C 44.9°F7.2°C 87% 4.5 mph NE7.2 kmh NE 6.0 mph9.7 kmh 29.86 in1011.2 mb 0.07 in1.8 mm 0.00 in0.0 mm 0.07 in1.8 mm
04:50 PM 48.9°F9.4°C 45.2°F7.3°C 87% 3.1 mph NNE5.0 kmh NNE 7.6 mph12.2 kmh 29.86 in1011.2 mb 0.07 in1.8 mm 0.00 in0.0 mm 0.07 in1.8 mm
04:55 PM 48.9°F9.4°C 44.9°F7.2°C 86% 3.1 mph NNE5.0 kmh NNE 7.6 mph12.2 kmh 29.86 in1011.2 mb 0.07 in1.8 mm 0.00 in0.0 mm 0.07 in1.8 mm
05:00 PM 48.9°F9.4°C 44.6°F7.0°C 85% 2.2 mph NE3.5 kmh NE 5.4 mph8.7 kmh 29.86 in1011.2 mb 0.07 in1.8 mm 0.00 in0.0 mm 0.07 in1.8 mm
05:05 PM 48.9°F9.4°C 44.9°F7.2°C 86% 2.2 mph NNE3.5 kmh NNE 5.4 mph8.7 kmh 29.86 in1011.2 mb 0.06 in1.5 mm 0.00 in0.0 mm 0.07 in1.8 mm
05:10 PM 49.1°F9.5°C 44.8°F7.1°C 85% 1.6 mph N2.6 kmh N 3.8 mph6.1 kmh 29.85 in1010.8 mb 0.06 in1.5 mm 0.00 in0.0 mm 0.07 in1.8 mm
05:15 PM 49.1°F9.5°C 44.8°F7.1°C 85% 1.6 mph NNE2.6 kmh NNE 3.8 mph6.1 kmh 29.85 in1010.8 mb 0.06 in1.5 mm 0.00 in0.0 mm 0.07 in1.8 mm
05:20 PM 49.1°F9.5°C 44.8°F7.1°C 85% 2.2 mph NE3.5 kmh NE 3.8 mph6.1 kmh 29.85 in1010.8 mb 0.05 in1.3 mm 0.00 in0.0 mm 0.07 in1.8 mm
05:25 PM 49.3°F9.6°C 44.7°F7.1°C 84% 3.1 mph NE5.0 kmh NE 4.5 mph7.2 kmh 29.85 in1010.8 mb 0.04 in1.0 mm 0.00 in0.0 mm 0.07 in1.8 mm
05:30 PM 49.5°F9.7°C 44.8°F7.1°C 84% 1.6 mph NE2.6 kmh NE 4.5 mph7.2 kmh 29.86 in1011.2 mb 0.01 in0.3 mm 0.00 in0.0 mm 0.07 in1.8 mm
05:35 PM 49.5°F9.7°C 44.2°F6.8°C 82% 3.1 mph NE5.0 kmh NE 4.5 mph7.2 kmh 29.85 in1010.8 mb 0.01 in0.3 mm 0.00 in0.0 mm 0.07 in1.8 mm
05:40 PM 49.3°F9.6°C 43.4°F6.3°C 80% 1.6 mph ENE2.6 kmh ENE 5.4 mph8.7 kmh 29.86 in1011.2 mb 0.00 in0.0 mm 0.00 in0.0 mm 0.07 in1.8 mm
05:45 PM 49.3°F9.6°C 43.1°F6.2°C 79% 1.6 mph NE2.6 kmh NE 5.4 mph8.7 kmh 29.86 in1011.2 mb 0.00 in0.0 mm 0.00 in0.0 mm 0.07 in1.8 mm
05:50 PM 49.3°F9.6°C 43.4°F6.3°C 80% 2.2 mph NE3.5 kmh NE 4.5 mph7.2 kmh 29.86 in1011.2 mb 0.00 in0.0 mm 0.00 in0.0 mm 0.07 in1.8 mm
05:55 PM 49.1°F9.5°C 43.5°F6.4°C 81% 2.2 mph NNE3.5 kmh NNE 5.4 mph8.7 kmh 29.85 in1010.8 mb 0.00 in0.0 mm 0.00 in0.0 mm 0.07 in1.8 mm
06:00 PM 48.9°F9.4°C 43.7°F6.5°C 82% 3.1 mph NNE5.0 kmh NNE 5.4 mph8.7 kmh 29.86 in1011.2 mb 0.00 in0.0 mm 0.00 in0.0 mm 0.07 in1.8 mm
06:05 PM 48.7°F9.3°C 43.5°F6.4°C 82% 3.1 mph NNE5.0 kmh NNE 5.4 mph8.7 kmh 29.86 in1011.2 mb 0.00 in0.0 mm 0.00 in0.0 mm 0.07 in1.8 mm
06:10 PM 48.6°F9.2°C 43.3°F6.3°C 82% 2.2 mph NNE3.5 kmh NNE 4.5 mph7.2 kmh 29.86 in1011.2 mb 0.00 in0.0 mm 0.00 in0.0 mm 0.07 in1.8 mm
06:15 PM 48.6°F9.2°C 43.3°F6.3°C 82% 2.2 mph NNE3.5 kmh NNE 4.5 mph7.2 kmh 29.86 in1011.2 mb 0.00 in0.0 mm 0.00 in0.0 mm 0.07 in1.8 mm
06:20 PM 48.4°F9.1°C 42.8°F6.0°C 81% 3.1 mph NNE5.0 kmh NNE 4.5 mph7.2 kmh 29.86 in1011.2 mb 0.00 in0.0 mm 0.00 in0.0 mm 0.07 in1.8 mm
06:25 PM 48.4°F9.1°C 43.1°F6.2°C 82% 3.8 mph NNE6.1 kmh NNE 4.5 mph7.2 kmh 29.86 in1011.2 mb 0.00 in0.0 mm 0.00 in0.0 mm 0.07 in1.8 mm
06:30 PM 48.4°F9.1°C 43.1°F6.2°C 82% 1.6 mph NE2.6 kmh NE 4.5 mph7.2 kmh 29.87 in1011.5 mb 0.00 in0.0 mm 0.00 in0.0 mm 0.07 in1.8 mm
06:35 PM 48.2°F9.0°C 43.0°F6.1°C 82% 1.6 mph N2.6 kmh N 3.8 mph6.1 kmh 29.87 in1011.5 mb 0.00 in0.0 mm 0.00 in0.0 mm 0.07 in1.8 mm
06:40 PM 48.2°F9.0°C 43.3°F6.3°C 83% 2.2 mph N3.5 kmh N 3.8 mph6.1 kmh 29.87 in1011.5 mb 0.00 in0.0 mm 0.00 in0.0 mm 0.07 in1.8 mm
06:45 PM 48.2°F9.0°C 43.6°F6.4°C 84% 1.6 mph N2.6 kmh N 3.8 mph6.1 kmh 29.87 in1011.5 mb 0.00 in0.0 mm 0.00 in0.0 mm 0.07 in1.8 mm
06:50 PM 48.0°F8.9°C 43.7°F6.5°C 85% 1.6 mph N2.6 kmh N 3.8 mph6.1 kmh 29.88 in1011.9 mb 0.00 in0.0 mm 0.00 in0.0 mm 0.07 in1.8 mm
06:55 PM 48.0°F8.9°C 43.7°F6.5°C 85% 2.2 mph N3.5 kmh N 3.8 mph6.1 kmh 29.88 in1011.9 mb 0.00 in0.0 mm 0.00 in0.0 mm 0.07 in1.8 mm
07:00 PM 48.0°F8.9°C 43.7°F6.5°C 85% 1.6 mph NW2.6 kmh NW 3.8 mph6.1 kmh 29.88 in1011.9 mb 0.00 in0.0 mm 0.00 in0.0 mm 0.07 in1.8 mm
07:05 PM 47.8°F8.8°C 43.6°F6.4°C 85% 2.2 mph NW3.5 kmh NW 3.8 mph6.1 kmh 29.89 in1012.2 mb 0.00 in0.0 mm 0.00 in0.0 mm 0.07 in1.8 mm
07:10 PM 47.8°F8.8°C 43.9°F6.6°C 86% 2.2 mph NW3.5 kmh NW 4.5 mph7.2 kmh 29.89 in1012.2 mb 0.00 in0.0 mm 0.00 in0.0 mm 0.07 in1.8 mm
07:15 PM 47.7°F8.7°C 43.7°F6.5°C 86% 3.1 mph NW5.0 kmh NW 4.5 mph7.2 kmh 29.89 in1012.2 mb 0.00 in0.0 mm 0.00 in0.0 mm 0.07 in1.8 mm
07:20 PM 47.5°F8.6°C 43.8°F6.6°C 87% 0.7 mph NNW1.1 kmh NNW 3.8 mph6.1 kmh 29.89 in1012.2 mb 0.00 in0.0 mm 0.00 in0.0 mm 0.07 in1.8 mm
07:25 PM 47.3°F8.5°C 43.9°F6.6°C 88% 1.6 mph N2.6 kmh N 3.8 mph6.1 kmh 29.89 in1012.2 mb 0.00 in0.0 mm 0.00 in0.0 mm 0.07 in1.8 mm
07:30 PM 47.1°F8.4°C 43.8°F6.6°C 88% Calm Calm 3.1 mph5.0 kmh 29.89 in1012.2 mb 0.00 in0.0 mm 0.00 in0.0 mm 0.07 in1.8 mm
07:35 PM 46.9°F8.3°C 43.9°F6.6°C 89% 1.6 mph N2.6 kmh N 3.1 mph5.0 kmh 29.89 in1012.2 mb 0.00 in0.0 mm 0.00 in0.0 mm 0.07 in1.8 mm
07:40 PM 46.9°F8.3°C 44.2°F6.8°C 90% 1.6 mph NNE2.6 kmh NNE 3.1 mph5.0 kmh 29.90 in1012.5 mb 0.00 in0.0 mm 0.00 in0.0 mm 0.07 in1.8 mm
07:45 PM 46.8°F8.2°C 44.0°F6.7°C 90% 1.6 mph NNE2.6 kmh NNE 3.1 mph5.0 kmh 29.90 in1012.5 mb 0.00 in0.0 mm 0.00 in0.0 mm 0.07 in1.8 mm
07:50 PM 46.6°F8.1°C 44.1°F6.7°C 91% 1.6 mph N2.6 kmh N 3.1 mph5.0 kmh 29.91 in1012.9 mb 0.00 in0.0 mm 0.00 in0.0 mm 0.07 in1.8 mm
07:55 PM 46.6°F8.1°C 44.1°F6.7°C 91% 0.7 mph NW1.1 kmh NW 2.2 mph3.5 kmh 29.91 in1012.9 mb 0.00 in0.0 mm 0.00 in0.0 mm 0.07 in1.8 mm
08:00 PM 46.6°F8.1°C 44.4°F6.9°C 92% 0.7 mph WNW1.1 kmh WNW 2.2 mph3.5 kmh 29.91 in1012.9 mb 0.00 in0.0 mm 0.00 in0.0 mm 0.07 in1.8 mm
08:05 PM 46.6°F8.1°C 44.4°F6.9°C 92% 1.6 mph NW2.6 kmh NW 3.1 mph5.0 kmh 29.91 in1012.9 mb 0.01 in0.3 mm 0.12 in3.0 mm 0.08 in2.0 mm
08:10 PM 46.4°F8.0°C 44.5°F6.9°C 93% Calm Calm 3.1 mph5.0 kmh 29.91 in1012.9 mb 0.01 in0.3 mm 0.00 in0.0 mm 0.08 in2.0 mm
08:15 PM 46.4°F8.0°C 44.5°F6.9°C 93% Calm Calm 1.6 mph2.6 kmh 29.91 in1012.9 mb 0.01 in0.3 mm 0.00 in0.0 mm 0.08 in2.0 mm
08:20 PM 46.2°F7.9°C 44.6°F7.0°C 94% 1.6 mph W2.6 kmh W 2.2 mph3.5 kmh 29.92 in1013.2 mb 0.01 in0.3 mm 0.00 in0.0 mm 0.08 in2.0 mm
08:25 PM 46.2°F7.9°C 44.6°F7.0°C 94% 1.6 mph WSW2.6 kmh WSW 3.1 mph5.0 kmh 29.92 in1013.2 mb 0.01 in0.3 mm 0.00 in0.0 mm 0.08 in2.0 mm
08:30 PM 46.2°F7.9°C 44.6°F7.0°C 94% 0.7 mph WSW1.1 kmh WSW 3.1 mph5.0 kmh 29.92 in1013.2 mb 0.01 in0.3 mm 0.00 in0.0 mm 0.08 in2.0 mm
08:35 PM 46.2°F7.9°C 44.9°F7.2°C 95% Calm Calm 2.2 mph3.5 kmh 29.93 in1013.5 mb 0.01 in0.3 mm 0.00 in0.0 mm 0.08 in2.0 mm
08:40 PM 46.2°F7.9°C 44.9°F7.2°C 95% Calm Calm 1.6 mph2.6 kmh 29.93 in1013.5 mb 0.01 in0.3 mm 0.00 in0.0 mm 0.08 in2.0 mm
08:45 PM 46.2°F7.9°C 44.9°F7.2°C 95% 0.7 mph WSW1.1 kmh WSW 2.2 mph3.5 kmh 29.93 in1013.5 mb 0.01 in0.3 mm 0.00 in0.0 mm 0.08 in2.0 mm
08:50 PM 46.2°F7.9°C 45.1°F7.3°C 96% 0.7 mph WSW1.1 kmh WSW 2.2 mph3.5 kmh 29.93 in1013.5 mb 0.01 in0.3 mm 0.00 in0.0 mm 0.08 in2.0 mm
08:55 PM 46.2°F7.9°C 45.1°F7.3°C 96% Calm Calm 1.6 mph2.6 kmh 29.94 in1013.9 mb 0.01 in0.3 mm 0.00 in0.0 mm 0.08 in2.0 mm
09:00 PM 46.0°F7.8°C 45.2°F7.3°C 97% Calm Calm 1.6 mph2.6 kmh 29.94 in1013.9 mb 0.01 in0.3 mm 0.00 in0.0 mm 0.08 in2.0 mm
09:05 PM 46.0°F7.8°C 45.2°F7.3°C 97% 0.7 mph WSW1.1 kmh WSW 1.6 mph2.6 kmh 29.94 in1013.9 mb 0.00 in0.0 mm 0.00 in0.0 mm 0.08 in2.0 mm
09:10 PM 46.0°F7.8°C 45.2°F7.3°C 97% 0.7 mph WSW1.1 kmh WSW 1.6 mph2.6 kmh 29.94 in1013.9 mb 0.00 in0.0 mm 0.00 in0.0 mm 0.08 in2.0 mm
09:15 PM 46.0°F7.8°C 45.2°F7.3°C 97% Calm Calm 2.2 mph3.5 kmh 29.94 in1013.9 mb 0.00 in0.0 mm 0.00 in0.0 mm 0.08 in2.0 mm
09:20 PM 46.0°F7.8°C 45.2°F7.3°C 97% 1.6 mph WSW2.6 kmh WSW 2.2 mph3.5 kmh 29.94 in1013.9 mb 0.00 in0.0 mm 0.00 in0.0 mm 0.08 in2.0 mm
09:25 PM 46.0°F7.8°C 45.2°F7.3°C 97% 1.6 mph SW2.6 kmh SW 3.1 mph5.0 kmh 29.95 in1014.2 mb 0.00 in0.0 mm 0.00 in0.0 mm 0.08 in2.0 mm
09:30 PM 46.0°F7.8°C 45.2°F7.3°C 97% 2.2 mph WSW3.5 kmh WSW 3.8 mph6.1 kmh 29.94 in1013.9 mb 0.00 in0.0 mm 0.00 in0.0 mm 0.08 in2.0 mm
09:35 PM 46.0°F7.8°C 45.2°F7.3°C 97% 0.7 mph W1.1 kmh W 3.8 mph6.1 kmh 29.95 in1014.2 mb 0.00 in0.0 mm 0.00 in0.0 mm 0.08 in2.0 mm
09:40 PM 45.9°F7.7°C 45.1°F7.3°C 97% 0.7 mph WNW1.1 kmh WNW 3.1 mph5.0 kmh 29.95 in1014.2 mb 0.00 in0.0 mm 0.00 in0.0 mm 0.08 in2.0 mm
09:45 PM 45.9°F7.7°C 45.1°F7.3°C 97% 0.7 mph WNW1.1 kmh WNW 3.1 mph5.0 kmh 29.95 in1014.2 mb 0.00 in0.0 mm 0.00 in0.0 mm 0.08 in2.0 mm
09:50 PM 45.7°F7.6°C 44.9°F7.2°C 97% 1.6 mph NW2.6 kmh NW 3.1 mph5.0 kmh 29.96 in1014.6 mb 0.00 in0.0 mm 0.00 in0.0 mm 0.08 in2.0 mm
09:55 PM 45.5°F7.5°C 44.7°F7.1°C 97% 0.7 mph NW1.1 kmh NW 2.2 mph3.5 kmh 29.96 in1014.6 mb 0.00 in0.0 mm 0.00 in0.0 mm 0.08 in2.0 mm
10:00 PM 45.5°F7.5°C 44.7°F7.1°C 97% 0.7 mph NW1.1 kmh NW 2.2 mph3.5 kmh 29.96 in1014.6 mb 0.00 in0.0 mm 0.00 in0.0 mm 0.08 in2.0 mm
10:05 PM 45.5°F7.5°C 44.7°F7.1°C 97% 0.7 mph NW1.1 kmh NW 1.6 mph2.6 kmh 29.96 in1014.6 mb 0.00 in0.0 mm 0.00 in0.0 mm 0.08 in2.0 mm
10:10 PM 45.5°F7.5°C 44.7°F7.1°C 97% Calm Calm 1.6 mph2.6 kmh 29.97 in1014.9 mb 0.00 in0.0 mm 0.00 in0.0 mm 0.08 in2.0 mm
10:15 PM 45.3°F7.4°C 44.5°F6.9°C 97% 0.7 mph NW1.1 kmh NW 1.6 mph2.6 kmh 29.96 in1014.6 mb 0.00 in0.0 mm 0.00 in0.0 mm 0.08 in2.0 mm
10:20 PM 45.3°F7.4°C 44.5°F6.9°C 97% Calm Calm 1.6 mph2.6 kmh 29.97 in1014.9 mb 0.00 in0.0 mm 0.00 in0.0 mm 0.08 in2.0 mm
10:25 PM 45.3°F7.4°C 44.5°F6.9°C 97% Calm Calm 1.6 mph2.6 kmh 29.97 in1014.9 mb 0.00 in0.0 mm 0.00 in0.0 mm 0.08 in2.0 mm
10:30 PM 45.3°F7.4°C 44.5°F6.9°C 97% Calm Calm 1.6 mph2.6 kmh 29.97 in1014.9 mb 0.00 in0.0 mm 0.00 in0.0 mm 0.08 in2.0 mm
10:35 PM 45.3°F7.4°C 44.5°F6.9°C 97% Calm Calm -- 29.97 in1014.9 mb 0.00 in0.0 mm 0.00 in0.0 mm 0.08 in2.0 mm
10:40 PM 45.3°F7.4°C 44.5°F6.9°C 97% Calm Calm -- 29.97 in1014.9 mb 0.00 in0.0 mm 0.00 in0.0 mm 0.08 in2.0 mm
10:45 PM 45.3°F7.4°C 44.5°F6.9°C 97% Calm Calm 1.6 mph2.6 kmh 29.97 in1014.9 mb 0.01 in0.3 mm 0.12 in3.0 mm 0.09 in2.3 mm
10:50 PM 45.5°F7.5°C 44.7°F7.1°C 97% 0.7 mph W1.1 kmh W 2.2 mph3.5 kmh 29.98 in1015.2 mb 0.01 in0.3 mm 0.00 in0.0 mm 0.09 in2.3 mm
10:55 PM 45.5°F7.5°C 44.7°F7.1°C 97% 1.6 mph W2.6 kmh W 3.1 mph5.0 kmh 29.98 in1015.2 mb 0.01 in0.3 mm 0.00 in0.0 mm 0.09 in2.3 mm
11:00 PM 45.5°F7.5°C 44.7°F7.1°C 97% 1.6 mph W2.6 kmh W 3.1 mph5.0 kmh 29.98 in1015.2 mb 0.01 in0.3 mm 0.00 in0.0 mm 0.09 in2.3 mm
11:05 PM 45.5°F7.5°C 44.7°F7.1°C 97% 1.6 mph W2.6 kmh W 3.1 mph5.0 kmh 29.98 in1015.2 mb 0.01 in0.3 mm 0.00 in0.0 mm 0.09 in2.3 mm
11:10 PM 45.5°F7.5°C 44.7°F7.1°C 97% 1.6 mph W2.6 kmh W 3.1 mph5.0 kmh 29.99 in1015.6 mb 0.01 in0.3 mm 0.00 in0.0 mm 0.09 in2.3 mm
11:15 PM 45.3°F7.4°C 44.5°F6.9°C 97% 1.6 mph WSW2.6 kmh WSW 3.1 mph5.0 kmh 29.99 in1015.6 mb 0.01 in0.3 mm 0.00 in0.0 mm 0.09 in2.3 mm
11:20 PM 45.3°F7.4°C 44.5°F6.9°C 97% 0.7 mph SW1.1 kmh SW 3.1 mph5.0 kmh 29.99 in1015.6 mb 0.02 in0.5 mm 0.12 in3.0 mm 0.11 in2.8 mm
11:25 PM 45.3°F7.4°C 44.5°F6.9°C 97% Calm Calm 2.2 mph3.5 kmh 30.00 in1015.9 mb 0.02 in0.5 mm 0.00 in0.0 mm 0.11 in2.8 mm
11:30 PM 45.3°F7.4°C 44.5°F6.9°C 97% Calm Calm 2.2 mph3.5 kmh 30.00 in1015.9 mb 0.02 in0.5 mm 0.00 in0.0 mm 0.11 in2.8 mm
11:35 PM 45.1°F7.3°C 44.3°F6.8°C 97% 1.6 mph SSW2.6 kmh SSW 2.2 mph3.5 kmh 30.00 in1015.9 mb 0.02 in0.5 mm 0.00 in0.0 mm 0.11 in2.8 mm
11:40 PM 45.0°F7.2°C 44.2°F6.8°C 97% Calm Calm 2.2 mph3.5 kmh 30.00 in1015.9 mb 0.02 in0.5 mm 0.00 in0.0 mm 0.11 in2.8 mm
11:45 PM 44.8°F7.1°C 44.0°F6.7°C 97% 0.7 mph SW1.1 kmh SW 2.2 mph3.5 kmh 30.01 in1016.3 mb 0.01 in0.3 mm 0.00 in0.0 mm 0.11 in2.8 mm
11:50 PM 44.6°F7.0°C 43.8°F6.6°C 97% 1.6 mph SSW2.6 kmh SSW 2.2 mph3.5 kmh 30.00 in1015.9 mb 0.01 in0.3 mm 0.00 in0.0 mm 0.11 in2.8 mm
11:55 PM 44.4°F6.9°C 43.9°F6.6°C 98% 1.6 mph SSW2.6 kmh SSW 3.8 mph6.1 kmh 30.01 in1016.3 mb 0.01 in0.3 mm 0.00 in0.0 mm 0.11 in2.8 mm